DLH117P EDDL-EDSB
Flight info
| Callsign | DLH117P |
|---|---|
| Flight time | 0h 42m |
| Altitude | 23000 |
| Route | KUMIK5Z/05R KUMIK L603 BOMBI N850 KRH KRH1L |
| Aircraft | A319/M-SDE3FGHIRWY/LB1 |
Departure
| Time | 2026-05-07 18:33 |
|---|---|
| Airport | Düsseldorf Airport (EDDL) |
Arrival
| Time | 2026-05-07 19:15 |
|---|---|
| Airport | Karlsruhe Baden-Baden Airport (EDSB) |
| Time | Latitude | Longitude | Altitude | Speed | Heading |
|---|---|---|---|---|---|
| 2026-05-07 17:51 | 51.28150 | 6.76547 | 125 ft | 0 kts | 97° |
| 2026-05-07 18:22 | 51.28150 | 6.76538 | 128 ft | 4 kts | 97° |
| 2026-05-07 18:22 | 51.28154 | 6.76496 | 127 ft | 4 kts | 97° |
| 2026-05-07 18:23 | 51.28157 | 6.76453 | 125 ft | 4 kts | 97° |
| 2026-05-07 18:23 | 51.28160 | 6.76420 | 124 ft | 0 kts | 97° |
| 2026-05-07 18:23 | 51.28173 | 6.76433 | 126 ft | 4 kts | 19° |
| 2026-05-07 18:23 | 51.28200 | 6.76436 | 127 ft | 4 kts | 1° |
| 2026-05-07 18:24 | 51.28227 | 6.76438 | 127 ft | 4 kts | 6° |
| 2026-05-07 18:24 | 51.28254 | 6.76473 | 125 ft | 3 kts | 232° |
| 2026-05-07 18:24 | 51.28267 | 6.76498 | 124 ft | 4 kts | 232° |
| 2026-05-07 18:24 | 51.28283 | 6.76532 | 126 ft | 4 kts | 232° |
| 2026-05-07 18:25 | 51.28300 | 6.76565 | 122 ft | 4 kts | 232° |
| 2026-05-07 18:25 | 51.28316 | 6.76597 | 122 ft | 2 kts | 232° |
| 2026-05-07 18:25 | 51.28316 | 6.76599 | 120 ft | 0 kts | 232° |
| 2026-05-07 18:28 | 51.28311 | 6.76588 | 124 ft | 2 kts | 232° |
| 2026-05-07 18:28 | 51.28302 | 6.76563 | 121 ft | 3 kts | 245° |
| 2026-05-07 18:29 | 51.28303 | 6.76518 | 123 ft | 6 kts | 288° |
| 2026-05-07 18:29 | 51.28317 | 6.76438 | 124 ft | 8 kts | 263° |
| 2026-05-07 18:29 | 51.28277 | 6.76331 | 124 ft | 14 kts | 233° |
| 2026-05-07 18:29 | 51.28218 | 6.76209 | 124 ft | 14 kts | 232° |
| 2026-05-07 18:30 | 51.28159 | 6.76086 | 127 ft | 14 kts | 233° |
| 2026-05-07 18:30 | 51.28099 | 6.75957 | 128 ft | 15 kts | 232° |
| 2026-05-07 18:30 | 51.28034 | 6.75822 | 128 ft | 16 kts | 232° |
| 2026-05-07 18:30 | 51.27965 | 6.75678 | 129 ft | 17 kts | 233° |
| 2026-05-07 18:31 | 51.27891 | 6.75522 | 126 ft | 18 kts | 233° |
| 2026-05-07 18:31 | 51.27847 | 6.75366 | 126 ft | 15 kts | 289° |
| 2026-05-07 18:31 | 51.27942 | 6.75273 | 124 ft | 17 kts | 346° |
| 2026-05-07 18:31 | 51.28030 | 6.75346 | 124 ft | 5 kts | 52° |
| 2026-05-07 18:32 | 51.28031 | 6.75347 | 124 ft | 0 kts | 52° |
| 2026-05-07 18:32 | 51.28191 | 6.75681 | 126 ft | 82 kts | 53° |
| 2026-05-07 18:32 | 51.28689 | 6.76726 | 148 ft | 149 kts | 53° |
| 2026-05-07 18:33 | 51.29311 | 6.78044 | 893 ft | 146 kts | 54° |
| 2026-05-07 18:33 | 51.29910 | 6.79338 | 1719 ft | 143 kts | 53° |
| 2026-05-07 18:33 | 51.30540 | 6.80666 | 2258 ft | 163 kts | 52° |
| 2026-05-07 18:33 | 51.31276 | 6.82212 | 2791 ft | 186 kts | 52° |
| 2026-05-07 18:34 | 51.32111 | 6.83961 | 3346 ft | 210 kts | 52° |
| 2026-05-07 18:34 | 51.33049 | 6.85926 | 3920 ft | 235 kts | 52° |
| 2026-05-07 18:34 | 51.34074 | 6.88126 | 4628 ft | 256 kts | 53° |
| 2026-05-07 18:34 | 51.35027 | 6.90591 | 5627 ft | 266 kts | 68° |
| 2026-05-07 18:35 | 51.35243 | 6.93556 | 6649 ft | 276 kts | 96° |
| 2026-05-07 18:35 | 51.34931 | 6.96609 | 7710 ft | 280 kts | 99° |
| 2026-05-07 18:35 | 51.34606 | 6.99706 | 8741 ft | 285 kts | 99° |
| 2026-05-07 18:35 | 51.34280 | 7.02876 | 9775 ft | 291 kts | 99° |
| 2026-05-07 18:36 | 51.33950 | 7.06127 | 10529 ft | 306 kts | 99° |
| 2026-05-07 18:36 | 51.33594 | 7.09620 | 10959 ft | 330 kts | 99° |
| 2026-05-07 18:36 | 51.33210 | 7.13388 | 11340 ft | 354 kts | 99° |
| 2026-05-07 18:36 | 51.32810 | 7.17296 | 12007 ft | 365 kts | 99° |
| 2026-05-07 18:37 | 51.32435 | 7.21351 | 12849 ft | 371 kts | 98° |
| 2026-05-07 18:37 | 51.32115 | 7.25466 | 13715 ft | 376 kts | 97° |
| 2026-05-07 18:37 | 51.31823 | 7.29657 | 14503 ft | 381 kts | 96° |
| 2026-05-07 18:37 | 51.31491 | 7.33882 | 15259 ft | 385 kts | 101° |
| 2026-05-07 18:38 | 51.30753 | 7.38018 | 16016 ft | 389 kts | 112° |
| 2026-05-07 18:38 | 51.29517 | 7.41888 | 16774 ft | 393 kts | 124° |
| 2026-05-07 18:38 | 51.27846 | 7.45367 | 17536 ft | 396 kts | 131° |
| 2026-05-07 18:38 | 51.26067 | 7.48767 | 18307 ft | 401 kts | 131° |
| 2026-05-07 18:39 | 51.24276 | 7.52206 | 18971 ft | 405 kts | 131° |
| 2026-05-07 18:39 | 51.22472 | 7.55682 | 19651 ft | 409 kts | 131° |
| 2026-05-07 18:39 | 51.20650 | 7.59200 | 20307 ft | 413 kts | 131° |
| 2026-05-07 18:39 | 51.18835 | 7.62708 | 20939 ft | 416 kts | 131° |
| 2026-05-07 18:40 | 51.16965 | 7.66246 | 21561 ft | 419 kts | 134° |
| 2026-05-07 18:40 | 51.14810 | 7.69407 | 22175 ft | 421 kts | 143° |
| 2026-05-07 18:40 | 51.12482 | 7.72270 | 22777 ft | 424 kts | 144° |
| 2026-05-07 18:40 | 51.10136 | 7.75138 | 23037 ft | 426 kts | 144° |
| 2026-05-07 18:41 | 51.07746 | 7.78046 | 23087 ft | 440 kts | 144° |
| 2026-05-07 18:41 | 51.05286 | 7.81035 | 23082 ft | 448 kts | 144° |
| 2026-05-07 18:41 | 51.02801 | 7.84057 | 23081 ft | 450 kts | 144° |
| 2026-05-07 18:41 | 51.00317 | 7.87088 | 23080 ft | 451 kts | 144° |
| 2026-05-07 18:42 | 50.97824 | 7.90131 | 23076 ft | 451 kts | 144° |
| 2026-05-07 18:42 | 50.95335 | 7.93163 | 23074 ft | 451 kts | 144° |
| 2026-05-07 18:42 | 50.92847 | 7.96189 | 23071 ft | 451 kts | 144° |
| 2026-05-07 18:42 | 50.90357 | 7.99209 | 23068 ft | 451 kts | 144° |
| 2026-05-07 18:43 | 50.87864 | 8.02228 | 23059 ft | 451 kts | 144° |
| 2026-05-07 18:43 | 50.85422 | 8.05265 | 23059 ft | 452 kts | 140° |
| 2026-05-07 18:43 | 50.83178 | 8.08857 | 23057 ft | 454 kts | 131° |
| 2026-05-07 18:43 | 50.81338 | 8.12837 | 23057 ft | 455 kts | 124° |
| 2026-05-07 18:44 | 50.79587 | 8.17017 | 23056 ft | 455 kts | 124° |
| 2026-05-07 18:44 | 50.77837 | 8.21174 | 23056 ft | 455 kts | 125° |
| 2026-05-07 18:44 | 50.76078 | 8.25330 | 23057 ft | 455 kts | 125° |
| 2026-05-07 18:44 | 50.74315 | 8.29485 | 23058 ft | 455 kts | 125° |
| 2026-05-07 18:45 | 50.72548 | 8.33640 | 23060 ft | 455 kts | 125° |
| 2026-05-07 18:45 | 50.70638 | 8.37617 | 23060 ft | 454 kts | 133° |
| 2026-05-07 18:45 | 50.68378 | 8.41060 | 23063 ft | 452 kts | 142° |
| 2026-05-07 18:45 | 50.65811 | 8.43903 | 23075 ft | 450 kts | 150° |
| 2026-05-07 18:46 | 50.63062 | 8.46258 | 23075 ft | 450 kts | 153° |
| 2026-05-07 18:46 | 50.60296 | 8.48587 | 23074 ft | 450 kts | 153° |
| 2026-05-07 18:46 | 50.57532 | 8.50920 | 23073 ft | 450 kts | 153° |
| 2026-05-07 18:46 | 50.54771 | 8.53248 | 23064 ft | 451 kts | 153° |
| 2026-05-07 18:47 | 50.52006 | 8.55576 | 23068 ft | 451 kts | 153° |
| 2026-05-07 18:47 | 50.49242 | 8.57899 | 23069 ft | 451 kts | 153° |
| 2026-05-07 18:47 | 50.46469 | 8.60224 | 23068 ft | 451 kts | 153° |
| 2026-05-07 18:47 | 50.43615 | 8.62246 | 23067 ft | 450 kts | 161° |
| 2026-05-07 18:48 | 50.40669 | 8.63691 | 23067 ft | 449 kts | 165° |
| 2026-05-07 18:48 | 50.37666 | 8.65093 | 23067 ft | 449 kts | 165° |
| 2026-05-07 18:48 | 50.34669 | 8.66497 | 23062 ft | 449 kts | 165° |
| 2026-05-07 18:48 | 50.31679 | 8.67900 | 23050 ft | 449 kts | 165° |
| 2026-05-07 18:49 | 50.28681 | 8.69304 | 23049 ft | 449 kts | 165° |
| 2026-05-07 18:49 | 50.25687 | 8.70705 | 23047 ft | 449 kts | 165° |
| 2026-05-07 18:49 | 50.22695 | 8.72102 | 23048 ft | 449 kts | 165° |
| 2026-05-07 18:49 | 50.19690 | 8.73502 | 23047 ft | 449 kts | 165° |
| 2026-05-07 18:50 | 50.16695 | 8.74899 | 23048 ft | 449 kts | 165° |
| 2026-05-07 18:50 | 50.13876 | 8.76211 | 23047 ft | 449 kts | 165° |
| 2026-05-07 18:50 | 50.10876 | 8.77605 | 23046 ft | 449 kts | 165° |
| 2026-05-07 18:50 | 50.07840 | 8.78689 | 23038 ft | 447 kts | 173° |
| 2026-05-07 18:51 | 50.04742 | 8.79018 | 23038 ft | 445 kts | 182° |
| 2026-05-07 18:51 | 50.01662 | 8.78586 | 23039 ft | 444 kts | 191° |
| 2026-05-07 18:51 | 49.98648 | 8.77574 | 23042 ft | 443 kts | 194° |
| 2026-05-07 18:51 | 49.95640 | 8.76521 | 23044 ft | 444 kts | 194° |
| 2026-05-07 18:52 | 49.92623 | 8.75477 | 23046 ft | 444 kts | 194° |
| 2026-05-07 18:52 | 49.89607 | 8.74441 | 23059 ft | 444 kts | 194° |
| 2026-05-07 18:52 | 49.86590 | 8.73408 | 23061 ft | 444 kts | 194° |
| 2026-05-07 18:52 | 49.83571 | 8.72377 | 23059 ft | 444 kts | 194° |
| 2026-05-07 18:53 | 49.80553 | 8.71347 | 23062 ft | 444 kts | 194° |
| 2026-05-07 18:53 | 49.77574 | 8.70323 | 23061 ft | 444 kts | 194° |
| 2026-05-07 18:53 | 49.74556 | 8.69294 | 23059 ft | 444 kts | 193° |
| 2026-05-07 18:53 | 49.71489 | 8.68684 | 23060 ft | 445 kts | 186° |
| 2026-05-07 18:54 | 49.68404 | 8.68272 | 23058 ft | 445 kts | 186° |
| 2026-05-07 18:54 | 49.65314 | 8.67861 | 23057 ft | 445 kts | 186° |
| 2026-05-07 18:54 | 49.62225 | 8.67451 | 23048 ft | 446 kts | 187° |
| 2026-05-07 18:54 | 49.59136 | 8.67041 | 23047 ft | 446 kts | 187° |
| 2026-05-07 18:55 | 49.56045 | 8.66629 | 23047 ft | 446 kts | 187° |
| 2026-05-07 18:55 | 49.52960 | 8.66214 | 22341 ft | 444 kts | 187° |
| 2026-05-07 18:55 | 49.49886 | 8.65804 | 21405 ft | 441 kts | 187° |
| 2026-05-07 18:55 | 49.46835 | 8.65401 | 20582 ft | 436 kts | 187° |
| 2026-05-07 18:56 | 49.43828 | 8.65005 | 19805 ft | 431 kts | 186° |
| 2026-05-07 18:56 | 49.40859 | 8.64616 | 19059 ft | 426 kts | 187° |
| 2026-05-07 18:56 | 49.37917 | 8.64228 | 18340 ft | 421 kts | 187° |
| 2026-05-07 18:56 | 49.35013 | 8.63840 | 17544 ft | 417 kts | 187° |
| 2026-05-07 18:57 | 49.32132 | 8.63455 | 16808 ft | 413 kts | 187° |
| 2026-05-07 18:57 | 49.29289 | 8.63044 | 16113 ft | 409 kts | 187° |
| 2026-05-07 18:57 | 49.26469 | 8.62606 | 15457 ft | 405 kts | 187° |
| 2026-05-07 18:57 | 49.23675 | 8.62159 | 14842 ft | 402 kts | 187° |
| 2026-05-07 18:58 | 49.20936 | 8.61717 | 14237 ft | 398 kts | 187° |
| 2026-05-07 18:58 | 49.18187 | 8.61275 | 13594 ft | 395 kts | 186° |
| 2026-05-07 18:58 | 49.15470 | 8.60844 | 12901 ft | 391 kts | 186° |
| 2026-05-07 18:58 | 49.12782 | 8.60424 | 12215 ft | 386 kts | 186° |
| 2026-05-07 18:59 | 49.10121 | 8.60022 | 11514 ft | 382 kts | 186° |
| 2026-05-07 18:59 | 49.07514 | 8.59639 | 11132 ft | 368 kts | 186° |
| 2026-05-07 18:59 | 49.04952 | 8.59187 | 10360 ft | 373 kts | 191° |
| 2026-05-07 18:59 | 49.02452 | 8.58095 | 10137 ft | 374 kts | 202° |
| 2026-05-07 19:00 | 49.00177 | 8.56347 | 10049 ft | 356 kts | 213° |
| 2026-05-07 19:00 | 48.98273 | 8.54150 | 10060 ft | 332 kts | 223° |
| 2026-05-07 19:00 | 48.96748 | 8.51694 | 9937 ft | 307 kts | 232° |
| 2026-05-07 19:00 | 48.95589 | 8.49116 | 9726 ft | 285 kts | 239° |
| 2026-05-07 19:01 | 48.94581 | 8.46577 | 9205 ft | 277 kts | 239° |
| 2026-05-07 19:01 | 48.93587 | 8.44083 | 8557 ft | 274 kts | 239° |
| 2026-05-07 19:01 | 48.92370 | 8.41900 | 7891 ft | 271 kts | 219° |
| 2026-05-07 19:01 | 48.90825 | 8.40269 | 7260 ft | 269 kts | 214° |
| 2026-05-07 19:02 | 48.89252 | 8.38731 | 7089 ft | 270 kts | 214° |
| 2026-05-07 19:02 | 48.87668 | 8.37196 | 7062 ft | 271 kts | 214° |
| 2026-05-07 19:02 | 48.86077 | 8.35657 | 7072 ft | 272 kts | 214° |
| 2026-05-07 19:02 | 48.84510 | 8.34145 | 6818 ft | 268 kts | 213° |
| 2026-05-07 19:03 | 48.82936 | 8.32632 | 6357 ft | 268 kts | 214° |
| 2026-05-07 19:03 | 48.81371 | 8.31129 | 6070 ft | 266 kts | 214° |
| 2026-05-07 19:03 | 48.79799 | 8.29619 | 6058 ft | 268 kts | 213° |
| 2026-05-07 19:03 | 48.78220 | 8.28105 | 6060 ft | 268 kts | 213° |
| 2026-05-07 19:04 | 48.76644 | 8.26573 | 6060 ft | 269 kts | 214° |
| 2026-05-07 19:04 | 48.75064 | 8.25032 | 6059 ft | 269 kts | 214° |
| 2026-05-07 19:04 | 48.73489 | 8.23499 | 6061 ft | 269 kts | 214° |
| 2026-05-07 19:04 | 48.72445 | 8.22484 | 6061 ft | 269 kts | 213° |
| 2026-05-07 19:05 | 48.70386 | 8.20482 | 6049 ft | 252 kts | 213° |
| 2026-05-07 19:05 | 48.69426 | 8.19549 | 6053 ft | 242 kts | 214° |
| 2026-05-07 19:05 | 48.68025 | 8.18190 | 6060 ft | 238 kts | 214° |
| 2026-05-07 19:05 | 48.66178 | 8.16401 | 6056 ft | 237 kts | 213° |
| 2026-05-07 19:06 | 48.65239 | 8.15490 | 6057 ft | 237 kts | 214° |
| 2026-05-07 19:06 | 48.62454 | 8.12801 | 6057 ft | 237 kts | 213° |
| 2026-05-07 19:06 | 48.61063 | 8.11458 | 6060 ft | 237 kts | 213° |
| 2026-05-07 19:07 | 48.59674 | 8.10118 | 6058 ft | 237 kts | 213° |
| 2026-05-07 19:07 | 48.58284 | 8.08771 | 6047 ft | 237 kts | 213° |
| 2026-05-07 19:07 | 48.56922 | 8.07451 | 5734 ft | 235 kts | 214° |
| 2026-05-07 19:07 | 48.55546 | 8.06119 | 5373 ft | 235 kts | 213° |
| 2026-05-07 19:08 | 48.54167 | 8.04777 | 4866 ft | 240 kts | 214° |
| 2026-05-07 19:08 | 48.53040 | 8.02978 | 4534 ft | 235 kts | 244° |
| 2026-05-07 19:08 | 48.52725 | 8.00628 | 4203 ft | 230 kts | 275° |
| 2026-05-07 19:08 | 48.52989 | 7.98261 | 4017 ft | 229 kts | 283° |
| 2026-05-07 19:09 | 48.53331 | 7.95903 | 4016 ft | 231 kts | 283° |
| 2026-05-07 19:09 | 48.53682 | 7.93539 | 4015 ft | 231 kts | 283° |
| 2026-05-07 19:09 | 48.54054 | 7.91098 | 4019 ft | 249 kts | 284° |
| 2026-05-07 19:09 | 48.54730 | 7.88810 | 4005 ft | 233 kts | 311° |
| 2026-05-07 19:10 | 48.56045 | 7.87472 | 4009 ft | 230 kts | 344° |
| 2026-05-07 19:10 | 48.57608 | 7.87514 | 4011 ft | 229 kts | 22° |
| 2026-05-07 19:10 | 48.58775 | 7.89084 | 4016 ft | 230 kts | 60° |
| 2026-05-07 19:10 | 48.59568 | 7.91194 | 4007 ft | 231 kts | 51° |
| 2026-05-07 19:11 | 48.60896 | 7.92499 | 4017 ft | 231 kts | 20° |
| 2026-05-07 19:11 | 48.62358 | 7.93488 | 3793 ft | 230 kts | 30° |
| 2026-05-07 19:11 | 48.63717 | 7.94751 | 3507 ft | 228 kts | 32° |
| 2026-05-07 19:11 | 48.65061 | 7.96024 | 3202 ft | 227 kts | 31° |
| 2026-05-07 19:12 | 48.66404 | 7.97279 | 2892 ft | 225 kts | 32° |
| 2026-05-07 19:12 | 48.67701 | 7.98488 | 2576 ft | 213 kts | 32° |
| 2026-05-07 19:12 | 48.68915 | 7.99620 | 2282 ft | 198 kts | 32° |
| 2026-05-07 19:12 | 48.70056 | 8.00683 | 2016 ft | 187 kts | 32° |
| 2026-05-07 19:13 | 48.71135 | 8.01691 | 1771 ft | 175 kts | 32° |
| 2026-05-07 19:13 | 48.72132 | 8.02621 | 1553 ft | 163 kts | 32° |
| 2026-05-07 19:13 | 48.73041 | 8.03470 | 1350 ft | 145 kts | 32° |
| 2026-05-07 19:13 | 48.73872 | 8.04247 | 1165 ft | 137 kts | 32° |
| 2026-05-07 19:14 | 48.74663 | 8.04986 | 992 ft | 134 kts | 31° |
| 2026-05-07 19:14 | 48.75453 | 8.05724 | 818 ft | 133 kts | 31° |
| 2026-05-07 19:14 | 48.76237 | 8.06456 | 640 ft | 132 kts | 32° |
| 2026-05-07 19:14 | 48.77015 | 8.07186 | 460 ft | 131 kts | 31° |
| 2026-05-07 19:15 | 48.77749 | 8.07881 | 416 ft | 110 kts | 31° |
| 2026-05-07 19:15 | 48.78258 | 8.08351 | 413 ft | 62 kts | 32° |
| 2026-05-07 19:15 | 48.78344 | 8.08565 | 414 ft | 15 kts | 118° |
| 2026-05-07 19:15 | 48.78320 | 8.08627 | 411 ft | 0 kts | 121° |
| 2026-05-07 19:16 | 48.78318 | 8.08630 | 411 ft | 2 kts | 121° |
| 2026-05-07 19:16 | 48.78291 | 8.08697 | 416 ft | 10 kts | 122° |
| 2026-05-07 19:17 | 48.78251 | 8.08796 | 413 ft | 12 kts | 123° |
| 2026-05-07 19:17 | 48.78192 | 8.08878 | 411 ft | 10 kts | 126° |
| 2026-05-07 19:17 | 48.78179 | 8.08906 | 413 ft | 0 kts | 123° |